Dobrodošli na spletni strani vremenske postaje Senovo. Vse informacije so informativnega značaja, saj vremenska postaja ni del državne mreže meteoroloških postaj. AKTUALNIH OBVESTIL NI.


Sneg/Led Od: 22-02-2018 00:00 Do: 23-02-2018 23:59 Opozorilo za: Sneg/Led Stopnja: Rumena info button
Veter Od: 22-02-2018 00:00 Do: 23:59 Opozorilo za: Veter Stopnja: Rumena info button

Pogled proti Armezu več informacij Pogled proti Armezu


Lisca več informacij Lisca


Radar strel več informacij blitzortung!


opozorilo za sneg/led več informacij rain snow radar


Obiščite še:

Template documentation
and downloads

And another site



Weather Underground, zgodovina - Tekstovno

Dnevni povzetek za Februar 10, 2017 Enote:  Metrično    Angleško   Obe
« Predhodni Dan
Naslednji Dan »
Dnevni Tedenski Mesečni Letni Po meri
  Višja: Nižja: Povprečje:
Temperatura: -17.8 °C -17.9 °C -17.6 °C
Točka rosišča: -17.8 °C -19.5 °C -18.9 °C
Vlažnost: Humidity % 79 % 84 %
Hitrost vetra: 0 km/h 0 km/h 7.7 km/h
Sunki vetra: 0 km/h - -
Veter:- - East
Zračni tlak: 0 hPa 34703.1 hPa -
Padavine: 0 mm    
Historical Graphs
 
 
Tabelarni podarki za Februar 10, 2017
Čas Temperatura Točka rosišča Zračni tlak Veter Hitrost vetra Sunki vetra Vlažnost Intenziteta padavin (urna)
-17.8 °C -17.8 °C 0 hPa Calm     Humidity % 0 mm
00:04 -17.7 °C -18.8 °C 34740.4 hPa East 7.7 km/h 11.1 km/h 86 % 0 mm
00:09 -17.7 °C -18.8 °C 34740.4 hPa East 8.9 km/h 12.7 km/h 87 % 0 mm
00:14 -17.7 °C -18.8 °C 34740.4 hPa East 8.9 km/h 12.7 km/h 87 % 0 mm
00:19 -17.8 °C -18.8 °C 34740.4 hPa East 8 km/h 11.1 km/h 87 % 0 mm
00:24 -17.8 °C -18.8 °C 34740.4 hPa East 8.5 km/h 12.7 km/h 87 % 0 mm
00:29 -17.8 °C -18.8 °C 34740.4 hPa East 8.2 km/h 12.7 km/h 87 % 0 mm
00:34 -17.8 °C -18.8 °C 34740.4 hPa East 6 km/h 9.3 km/h 87 % 0 mm
00:39 -17.8 °C -18.8 °C 34740.4 hPa ESE 5.1 km/h 11.6 km/h 87 % 0 mm
00:44 -17.8 °C -18.8 °C 34740.4 hPa East 5.1 km/h 11.6 km/h 87 % 0 mm
00:49 -17.8 °C -18.8 °C 34740.4 hPa East 5 km/h 9.8 km/h 87 % 0 mm
00:54 -17.8 °C -18.8 °C 34740.4 hPa East 4.3 km/h 8 km/h 87 % 0 mm
00:59 -17.8 °C -18.8 °C 34740.4 hPa ESE 5.5 km/h 12.7 km/h 87 % 0 mm
01:04 -17.8 °C -18.8 °C 34740.4 hPa ESE 7.7 km/h 14 km/h 87 % 0 mm
01:10 -17.8 °C -18.8 °C 34703.1 hPa ESE 8.2 km/h 14 km/h 87 % 0 mm
01:15 -17.8 °C -18.8 °C 34703.1 hPa ESE 8.2 km/h 12.7 km/h 87 % 0 mm
01:20 -17.8 °C -18.8 °C 34703.1 hPa ESE 9.3 km/h 14.5 km/h 87 % 0 mm
01:25 -17.8 °C -18.8 °C 34703.1 hPa ESE 9.7 km/h 14.5 km/h 87 % 0 mm
01:30 -17.8 °C -18.8 °C 34703.1 hPa ESE 9.8 km/h 15.6 km/h 87 % 0 mm
01:35 -17.8 °C -18.8 °C 34703.1 hPa East 9.3 km/h 15.6 km/h 87 % 0 mm
01:40 -17.8 °C -18.8 °C 34703.1 hPa ENE 8.9 km/h 19.2 km/h 88 % 0 mm
01:45 -17.8 °C -18.8 °C 34703.1 hPa ENE 8 km/h 19.2 km/h 88 % 0 mm
01:51 -17.8 °C -18.8 °C 34703.1 hPa East 6.4 km/h 11.1 km/h 88 % 0 mm
01:56 -17.8 °C -18.8 °C 34740.4 hPa East 6 km/h 11.1 km/h 88 % 0 mm
02:01 -17.8 °C -18.8 °C 34740.4 hPa ENE 6.9 km/h 12.7 km/h 88 % 0 mm
02:06 -17.8 °C -18.8 °C 34740.4 hPa ENE 9 km/h 16.3 km/h 88 % 0 mm
02:11 -17.8 °C -18.8 °C 34740.4 hPa ENE 11.1 km/h 19.6 km/h 88 % 0 mm
02:16 -17.8 °C -18.8 °C 34740.4 hPa ENE 10.9 km/h 19.6 km/h 88 % 0 mm
02:22 -17.8 °C -18.8 °C 34740.4 hPa East 9.7 km/h 19.6 km/h 88 % 0 mm
02:27 -17.8 °C -18.8 °C 34740.4 hPa East 9.3 km/h 19.6 km/h 88 % 0 mm
02:32 -17.8 °C -18.8 °C 34740.4 hPa ENE 9.8 km/h 16.9 km/h 88 % 0 mm
02:37 -17.8 °C -18.8 °C 34740.4 hPa East 9.7 km/h 16.9 km/h 88 % 0 mm
02:42 -17.8 °C -18.7 °C 34740.4 hPa ENE 10.6 km/h 20.3 km/h 89 % 0 mm
02:47 -17.8 °C -18.7 °C 34740.4 hPa ENE 11.6 km/h 20.3 km/h 89 % 0 mm
02:52 -17.8 °C -18.7 °C 34740.4 hPa ENE 10.3 km/h 16.3 km/h 89 % 0 mm
02:56 -17.8 °C -18.7 °C 34740.4 hPa ENE 9.3 km/h 16.3 km/h 89 % 0 mm
03:01 -17.8 °C -18.7 °C 34740.4 hPa ENE 8.5 km/h 15 km/h 89 % 0 mm
03:06 -17.8 °C -18.7 °C 34740.4 hPa East 9 km/h 16.3 km/h 89 % 0 mm
03:12 -17.8 °C -18.7 °C 34703.1 hPa ENE 9 km/h 16.3 km/h 89 % 0 mm
03:17 -17.8 °C -18.7 °C 34703.1 hPa ENE 7.6 km/h 10.3 km/h 89 % 0 mm
03:19 -17.8 °C -18.7 °C 34703.1 hPa ENE 6.9 km/h 10.3 km/h 89 % 0 mm
03:24 -17.8 °C -18.7 °C 34740.4 hPa ENE 6.3 km/h 10.3 km/h 89 % 0 mm
03:29 -17.8 °C -18.8 °C 34740.4 hPa ENE 5.6 km/h 11.1 km/h 88 % 0 mm
03:34 -17.8 °C -18.8 °C 34740.4 hPa East 6.3 km/h 14 km/h 88 % 0 mm
03:39 -17.8 °C -18.8 °C 34740.4 hPa East 7.2 km/h 14 km/h 88 % 0 mm
03:44 -17.8 °C -18.8 °C 34740.4 hPa ENE 8.5 km/h 11.6 km/h 88 % 0 mm
03:50 -17.8 °C -18.8 °C 34740.4 hPa East 8.9 km/h 16.3 km/h 88 % 0 mm
03:55 -17.8 °C -18.8 °C 34703.1 hPa East 8 km/h 16.3 km/h 88 % 0 mm
04:00 -17.8 °C -18.8 °C 34703.1 hPa East 7.7 km/h 12.2 km/h 88 % 0 mm
04:05 -17.8 °C -18.8 °C 34703.1 hPa East 8.5 km/h 14.5 km/h 88 % 0 mm
04:10 -17.7 °C -18.7 °C 34740.4 hPa East 8.9 km/h 16.3 km/h 88 % 0 mm
04:15 -17.8 °C -18.8 °C 34740.4 hPa East 8.2 km/h 16.3 km/h 88 % 0 mm
04:20 -17.8 °C -18.8 °C 34740.4 hPa East 8.2 km/h 12.7 km/h 88 % 0 mm
04:25 -17.8 °C -18.8 °C 34740.4 hPa ENE 8.2 km/h 11.1 km/h 88 % 0 mm
04:30 -17.8 °C -18.8 °C 34740.4 hPa East 7.6 km/h 11.1 km/h 88 % 0 mm
04:35 -17.8 °C -18.8 °C 34740.4 hPa East 6.8 km/h 11.1 km/h 88 % 0 mm
04:40 -17.8 °C -18.8 °C 34703.1 hPa East 7.6 km/h 12.2 km/h 88 % 0 mm
04:45 -17.8 °C -18.8 °C 34703.1 hPa East 8.5 km/h 12.7 km/h 88 % 0 mm
04:50 -17.8 °C -18.8 °C 34703.1 hPa East 8.9 km/h 15.6 km/h 88 % 0 mm
04:55 -17.8 °C -18.8 °C 34740.4 hPa ENE 8 km/h 15.6 km/h 88 % 0 mm
05:00 -17.8 °C -18.8 °C 34740.4 hPa ENE 6.8 km/h 12.7 km/h 88 % 0 mm
05:05 -17.8 °C -18.8 °C 34740.4 hPa East 6.9 km/h 12.7 km/h 88 % 0 mm
05:10 -17.8 °C -18.8 °C 34740.4 hPa East 7.6 km/h 16.3 km/h 88 % 0 mm
05:15 -17.8 °C -18.8 °C 34740.4 hPa East 8.5 km/h 16.3 km/h 88 % 0 mm
05:20 -17.8 °C -18.8 °C 34740.4 hPa East 10.1 km/h 16.9 km/h 88 % 0 mm
05:25 -17.8 °C -18.8 °C 34740.4 hPa ENE 11.6 km/h 22 km/h 88 % 0 mm
05:30 -17.8 °C -18.7 °C 34740.4 hPa East 11.4 km/h 22 km/h 89 % 0 mm
05:35 -17.8 °C -18.7 °C 34740.4 hPa ENE 9.8 km/h 15 km/h 89 % 0 mm
05:40 -17.9 °C -18.8 °C 34703.1 hPa ENE 9 km/h 16.9 km/h 89 % 0 mm
05:45 -17.9 °C -18.8 °C 34703.1 hPa ENE 8.9 km/h 16.9 km/h 89 % 0 mm
05:50 -17.9 °C -18.8 °C 34703.1 hPa East 8.2 km/h 15 km/h 89 % 0 mm
05:55 -17.9 °C -18.8 °C 34740.4 hPa East 8.9 km/h 20.9 km/h 89 % 0 mm
06:00 -17.9 °C -18.8 °C 34740.4 hPa East 9.7 km/h 20.9 km/h 89 % 0 mm
06:05 -17.9 °C -18.8 °C 34740.4 hPa ESE 10.6 km/h 15.6 km/h 89 % 0 mm
06:10 -17.9 °C -18.8 °C 34740.4 hPa ESE 11.1 km/h 18.7 km/h 89 % 0 mm
06:15 -17.9 °C -18.8 °C 34740.4 hPa East 10.1 km/h 18.7 km/h 89 % 0 mm
06:20 -17.9 °C -18.8 °C 34740.4 hPa ESE 10.1 km/h 17.9 km/h 89 % 0 mm
06:25 -17.9 °C -18.8 °C 34703.1 hPa East 10.6 km/h 17.9 km/h 89 % 0 mm
06:30 -17.9 °C -18.8 °C 34703.1 hPa East 9.3 km/h 16.9 km/h 89 % 0 mm
06:35 -17.9 °C -18.8 °C 34703.1 hPa East 8 km/h 14.5 km/h 89 % 0 mm
06:40 -17.9 °C -18.8 °C 34703.1 hPa East 8.9 km/h 16.3 km/h 89 % 0 mm
06:45 -17.9 °C -18.8 °C 34703.1 hPa ENE 9.3 km/h 16.3 km/h 89 % 0 mm
06:50 -17.9 °C -18.8 °C 34703.1 hPa East 8.5 km/h 16.3 km/h 89 % 0 mm
06:55 -17.8 °C -18.7 °C 34703.1 hPa ESE 8.9 km/h 15.6 km/h 89 % 0 mm
07:00 -17.8 °C -18.7 °C 34703.1 hPa East 11.1 km/h 22 km/h 89 % 0 mm
07:05 -17.8 °C -18.7 °C 34703.1 hPa East 9.8 km/h 22 km/h 89 % 0 mm
07:09 -17.8 °C -18.8 °C 34740.4 hPa ESE 8.5 km/h 12.2 km/h 88 % 0 mm
07:14 -17.8 °C -18.8 °C 34740.4 hPa ESE 8.2 km/h 15.6 km/h 88 % 0 mm
07:19 -17.8 °C -18.8 °C 34740.4 hPa East 6.9 km/h 15.6 km/h 88 % 0 mm
07:24 -17.8 °C -18.8 °C 34740.4 hPa East 5.6 km/h 12.7 km/h 88 % 0 mm
07:29 -17.8 °C -18.8 °C 34740.4 hPa ENE 7.7 km/h 12.7 km/h 88 % 0 mm
07:34 -17.8 °C -18.8 °C 34740.4 hPa ENE 8 km/h 12.2 km/h 88 % 0 mm
07:39 -17.7 °C -18.7 °C 34774.2 hPa ENE 8.2 km/h 15 km/h 88 % 0 mm
07:44 -17.7 °C -18.8 °C 34774.2 hPa ENE 9 km/h 15 km/h 87 % 0 mm
07:49 -17.7 °C -18.8 °C 34774.2 hPa ENE 7.2 km/h 9.8 km/h 87 % 0 mm
07:54 -17.7 °C -18.8 °C 34703.1 hPa East 6.3 km/h 9.8 km/h 87 % 0 mm
07:59 -17.7 °C -18.8 °C 34703.1 hPa East 6.4 km/h 9.8 km/h 87 % 0 mm
08:04 -17.7 °C -18.8 °C 34703.1 hPa East 6.8 km/h 12.7 km/h 87 % 0 mm
08:09 -17.7 °C -18.8 °C 34740.4 hPa East 6.8 km/h 12.7 km/h 87 % 0 mm
08:14 -17.7 °C -18.7 °C 34740.4 hPa East 5.5 km/h 9.3 km/h 87 % 0 mm
08:19 -17.7 °C -18.7 °C 34740.4 hPa ENE 5.5 km/h 11.1 km/h 87 % 0 mm
08:24 -17.7 °C -18.7 °C 34740.4 hPa ENE 6.8 km/h 11.1 km/h 87 % 0 mm
08:30 -17.7 °C -18.7 °C 34740.4 hPa ENE 6.8 km/h 11.1 km/h 87 % 0 mm
08:35 -17.7 °C -18.7 °C 34740.4 hPa ENE 6 km/h 8.9 km/h 87 % 0 mm
08:40 -17.7 °C -18.7 °C 34740.4 hPa ENE 6 km/h 9.8 km/h 87 % 0 mm
08:45 -17.6 °C -18.7 °C 34740.4 hPa ENE 6 km/h 9.8 km/h 87 % 0 mm
08:50 -17.6 °C -18.7 °C 34740.4 hPa East 6.3 km/h 15.6 km/h 87 % 0 mm
08:55 -17.6 °C -18.7 °C 34703.1 hPa East 7.6 km/h 15.6 km/h 87 % 0 mm
09:00 -17.6 °C -18.7 °C 34703.1 hPa East 8.9 km/h 15.6 km/h 87 % 0 mm
09:05 -17.6 °C -18.7 °C 34703.1 hPa ENE 8 km/h 16.3 km/h 87 % 0 mm
09:10 -17.6 °C -18.7 °C 34703.1 hPa East 8.9 km/h 16.9 km/h 87 % 0 mm
09:15 -17.6 °C -18.7 °C 34703.1 hPa East 9.8 km/h 15.6 km/h 87 % 0 mm
09:20 -17.6 °C -18.7 °C 34703.1 hPa East 9.3 km/h 14.5 km/h 87 % 0 mm
09:25 -17.6 °C -18.7 °C 34703.1 hPa East 9.8 km/h 16.3 km/h 87 % 0 mm
09:30 -17.6 °C -18.7 °C 34703.1 hPa ENE 9 km/h 16.3 km/h 87 % 0 mm
09:35 -17.6 °C -18.7 °C 34703.1 hPa ENE 8 km/h 14 km/h 87 % 0 mm
09:40 -17.6 °C -18.7 °C 34703.1 hPa East 9.8 km/h 16.3 km/h 87 % 0 mm
09:45 -17.6 °C -18.7 °C 34703.1 hPa East 11.4 km/h 16.9 km/h 87 % 0 mm
09:50 -17.6 °C -18.7 °C 34703.1 hPa East 11.4 km/h 16.9 km/h 87 % 0 mm
09:55 -17.6 °C -18.7 °C 34703.1 hPa ESE 10.9 km/h 16.3 km/h 87 % 0 mm
10:00 -17.6 °C -18.7 °C 34703.1 hPa ESE 10.3 km/h 16.3 km/h 87 % 0 mm
10:05 -17.6 °C -18.6 °C 34703.1 hPa East 10.3 km/h 18.7 km/h 88 % 0 mm
10:10 -17.6 °C -18.6 °C 34740.4 hPa East 10.3 km/h 18.7 km/h 88 % 0 mm
10:15 -17.6 °C -18.6 °C 34740.4 hPa East 8.9 km/h 16.9 km/h 88 % 0 mm
10:20 -17.6 °C -18.6 °C 34740.4 hPa East 8 km/h 14 km/h 88 % 0 mm
10:25 -17.6 °C -18.6 °C 34703.1 hPa East 8 km/h 14 km/h 88 % 0 mm
10:30 -17.6 °C -18.6 °C 34703.1 hPa East 8.2 km/h 14 km/h 88 % 0 mm
10:35 -17.6 °C -18.6 °C 34703.1 hPa East 8.2 km/h 12.7 km/h 88 % 0 mm
10:40 -17.6 °C -18.6 °C 34740.4 hPa East 8.9 km/h 15.6 km/h 88 % 0 mm
10:45 -17.6 °C -18.6 °C 34740.4 hPa East 9.7 km/h 16.3 km/h 88 % 0 mm
10:50 -17.6 °C -18.6 °C 34740.4 hPa East 9.7 km/h 16.3 km/h 88 % 0 mm
10:55 -17.6 °C -18.5 °C 34740.4 hPa East 9.7 km/h 14.5 km/h 88 % 0 mm
11:00 -17.6 °C -18.5 °C 34740.4 hPa East 9.7 km/h 16.3 km/h 88 % 0 mm
11:05 -17.6 °C -18.5 °C 34740.4 hPa East 9.8 km/h 20.3 km/h 88 % 0 mm
11:10 -17.6 °C -18.5 °C 34740.4 hPa East 10.3 km/h 20.3 km/h 88 % 0 mm
11:15 -17.6 °C -18.5 °C 34740.4 hPa East 10.1 km/h 19.2 km/h 88 % 0 mm
11:20 -17.5 °C -18.5 °C 34740.4 hPa East 9.7 km/h 23.8 km/h 88 % 0 mm
11:25 -17.5 °C -18.6 °C 34740.4 hPa East 9.8 km/h 23.8 km/h 87 % 0 mm
11:30 -17.5 °C -18.6 °C 34740.4 hPa East 10.3 km/h 17.4 km/h 87 % 0 mm
11:36 -17.5 °C -18.6 °C 34740.4 hPa East 10.3 km/h 17.4 km/h 87 % 0 mm
11:41 -17.5 °C -18.6 °C 34740.4 hPa East 10.1 km/h 16.9 km/h 87 % 0 mm
11:46 -17.4 °C -18.5 °C 34740.4 hPa East 11.1 km/h 19.6 km/h 87 % 0 mm
11:51 -17.4 °C -18.5 °C 34740.4 hPa East 11.6 km/h 19.6 km/h 87 % 0 mm
11:56 -17.4 °C -18.5 °C 34740.4 hPa East 10.9 km/h 17.9 km/h 87 % 0 mm
12:01 -17.4 °C -18.5 °C 34740.4 hPa East 9.8 km/h 17.9 km/h 87 % 0 mm
12:06 -17.4 °C -18.4 °C 34740.4 hPa East 9.8 km/h 18.7 km/h 87 % 0 mm
12:11 -17.4 °C -18.6 °C 34774.2 hPa East 9.8 km/h 18.7 km/h 86 % 0 mm
12:16 -17.3 °C -18.4 °C 34774.2 hPa ENE 8.2 km/h 14.5 km/h 86 % 0 mm
12:18 -17.3 °C -18.5 °C 34774.2 hPa ENE 8 km/h 14.5 km/h 85 % 0 mm
12:23 -17.2 °C -18.4 °C 34740.4 hPa ENE 8 km/h 16.3 km/h 85 % 0 mm
12:28 -17.1 °C -18.4 °C 34740.4 hPa East 9 km/h 16.3 km/h 85 % 0 mm
12:33 -17.1 °C -18.4 °C 34740.4 hPa East 10.6 km/h 16.9 km/h 84 % 0 mm
12:38 -17 °C -18.3 °C 34740.4 hPa ESE 11.9 km/h 22 km/h 84 % 0 mm
12:43 -16.9 °C -18.4 °C 34740.4 hPa ESE 12.9 km/h 22 km/h 83 % 0 mm
12:48 -16.9 °C -18.3 °C 34740.4 hPa ESE 13.5 km/h 22 km/h 83 % 0 mm
12:53 -16.8 °C -18.4 °C 34740.4 hPa ESE 11.6 km/h 20.3 km/h 82 % 0 mm
12:58 -16.8 °C -18.4 °C 34740.4 hPa ESE 11.9 km/h 19.6 km/h 82 % 0 mm
13:03 -16.8 °C -18.4 °C 34740.4 hPa ESE 13.7 km/h 19.6 km/h 81 % 0 mm
13:08 -16.8 °C -18.4 °C 34740.4 hPa ESE 13.7 km/h 20.3 km/h 81 % 0 mm
13:13 -16.9 °C -18.6 °C 34740.4 hPa ESE 10.6 km/h 20.3 km/h 80 % 0 mm
13:18 -16.9 °C -18.6 °C 34740.4 hPa ESE 10.3 km/h 20.9 km/h 80 % 0 mm
13:22 -16.9 °C -18.7 °C 34740.4 hPa ESE 11.1 km/h 20.9 km/h 80 % 0 mm
13:27 -16.9 °C -18.7 °C 34740.4 hPa ESE 9.7 km/h 19.6 km/h 79 % 0 mm
13:32 -16.9 °C -18.7 °C 34740.4 hPa ESE 9.8 km/h 19.6 km/h 80 % 0 mm
13:37 -16.9 °C -18.7 °C 34740.4 hPa ESE 9.7 km/h 16.9 km/h 80 % 0 mm
13:42 -16.9 °C -18.7 °C 34740.4 hPa ESE 9.3 km/h 17.4 km/h 80 % 0 mm
13:47 -16.9 °C -18.7 °C 34740.4 hPa ESE 10.1 km/h 19.2 km/h 80 % 0 mm
13:52 -17 °C -18.8 °C 34740.4 hPa ESE 10.1 km/h 19.2 km/h 79 % 0 mm
13:57 -17 °C -18.8 °C 34740.4 hPa East 10.1 km/h 15.6 km/h 79 % 0 mm
14:02 -17 °C -18.8 °C 34740.4 hPa East 10.6 km/h 15.6 km/h 79 % 0 mm
14:07 -17 °C -18.8 °C 34740.4 hPa ESE 10.6 km/h 15.6 km/h 79 % 0 mm
14:12 -17 °C -18.8 °C 34740.4 hPa ESE 9 km/h 15 km/h 79 % 0 mm
14:17 -17 °C -18.8 °C 34740.4 hPa East 8.5 km/h 15.6 km/h 79 % 0 mm
14:22 -17 °C -18.7 °C 34740.4 hPa ESE 11.4 km/h 17.4 km/h 80 % 0 mm
14:27 -17 °C -18.7 °C 34740.4 hPa ESE 11.4 km/h 19.2 km/h 80 % 0 mm
14:32 -17 °C -18.7 °C 34740.4 hPa ESE 11.6 km/h 22 km/h 80 % 0 mm
14:37 -16.9 °C -18.7 °C 34740.4 hPa ESE 12.4 km/h 22 km/h 80 % 0 mm
14:42 -17 °C -18.7 °C 34740.4 hPa ESE 10.9 km/h 19.2 km/h 80 % 0 mm
14:47 -17 °C -18.7 °C 34740.4 hPa ESE 12.2 km/h 18.7 km/h 80 % 0 mm
14:52 -17 °C -18.7 °C 34740.4 hPa ESE 13.2 km/h 22 km/h 80 % 0 mm
14:57 -17.1 °C -18.8 °C 34740.4 hPa ESE 12.2 km/h 22 km/h 79 % 0 mm
15:02 -17.1 °C -18.8 °C 34740.4 hPa ESE 10.3 km/h 16.9 km/h 79 % 0 mm
15:07 -17.1 °C -18.8 °C 34740.4 hPa ESE 10.6 km/h 15.6 km/h 79 % 0 mm
15:12 -17.1 °C -18.8 °C 34740.4 hPa ESE 10.9 km/h 15.6 km/h 79 % 0 mm
15:17 -17.1 °C -18.9 °C 34740.4 hPa ESE 9.8 km/h 17.4 km/h 79 % 0 mm
15:22 -17.1 °C -18.8 °C 34740.4 hPa ESE 9.3 km/h 17.4 km/h 80 % 0 mm
15:27 -17.1 °C -18.8 °C 34740.4 hPa ESE 9.8 km/h 17.4 km/h 80 % 0 mm
15:32 -17.2 °C -18.8 °C 34740.4 hPa ESE 10.3 km/h 17.4 km/h 80 % 0 mm
15:37 -17.2 °C -18.8 °C 34774.2 hPa ESE 10.3 km/h 16.9 km/h 80 % 0 mm
15:42 -17.2 °C -18.8 °C 34774.2 hPa ESE 10.3 km/h 15.6 km/h 80 % 0 mm
15:47 -17.2 °C -18.8 °C 34774.2 hPa ESE 11.6 km/h 18.7 km/h 80 % 0 mm
15:52 -17.2 °C -18.9 °C 34740.4 hPa ESE 11.9 km/h 18.7 km/h 80 % 0 mm
15:57 -17.2 °C -18.9 °C 34740.4 hPa ESE 10.6 km/h 16.3 km/h 80 % 0 mm
16:02 -17.2 °C -18.9 °C 34740.4 hPa ESE 9.3 km/h 18.7 km/h 80 % 0 mm
16:07 -17.3 °C -18.9 °C 34740.4 hPa ESE 10.3 km/h 20.9 km/h 81 % 0 mm
16:12 -17.3 °C -18.9 °C 34740.4 hPa East 11.4 km/h 20.9 km/h 81 % 0 mm
16:17 -17.3 °C -18.9 °C 34740.4 hPa East 10.1 km/h 17.9 km/h 81 % 0 mm
16:22 -17.3 °C -18.9 °C 34740.4 hPa East 9 km/h 14.5 km/h 81 % 0 mm
16:27 -17.3 °C -18.9 °C 34740.4 hPa ESE 9 km/h 15 km/h 81 % 0 mm
16:32 -17.4 °C -19 °C 34740.4 hPa ESE 9 km/h 15 km/h 81 % 0 mm
16:35 -17.4 °C -19 °C 34740.4 hPa ESE 8.9 km/h 15 km/h 81 % 0 mm
16:40 -17.4 °C -19 °C 34703.1 hPa East 7.2 km/h 12.2 km/h 81 % 0 mm
16:45 -17.4 °C -19 °C 34703.1 hPa ESE 8.2 km/h 11.1 km/h 81 % 0 mm
16:50 -17.4 °C -19.1 °C 34703.1 hPa ESE 9 km/h 14.5 km/h 81 % 0 mm
16:55 -17.4 °C -19.1 °C 34703.1 hPa ESE 8.2 km/h 14.5 km/h 81 % 0 mm
17:00 -17.4 °C -19.1 °C 34703.1 hPa ESE 9 km/h 16.3 km/h 81 % 0 mm
17:05 -17.4 °C -19.1 °C 34703.1 hPa ESE 10.3 km/h 16.3 km/h 81 % 0 mm
17:10 -17.4 °C -19.1 °C 34740.4 hPa ESE 10.1 km/h 16.3 km/h 81 % 0 mm
17:15 -17.4 °C -19.1 °C 34740.4 hPa East 9 km/h 12.7 km/h 81 % 0 mm
17:20 -17.4 °C -19.1 °C 34740.4 hPa East 7.2 km/h 12.7 km/h 81 % 0 mm
17:25 -17.4 °C -19.1 °C 34703.1 hPa ESE 8 km/h 15 km/h 81 % 0 mm
17:30 -17.5 °C -19.1 °C 34703.1 hPa ESE 9.8 km/h 16.3 km/h 81 % 0 mm
17:35 -17.5 °C -19.2 °C 34703.1 hPa ESE 9 km/h 16.3 km/h 80 % 0 mm
17:40 -17.6 °C -19.2 °C 34740.4 hPa ESE 8.5 km/h 14.5 km/h 81 % 0 mm
17:45 -17.6 °C -19.2 °C 34740.4 hPa ESE 7.2 km/h 12.2 km/h 81 % 0 mm
17:50 -17.6 °C -19.2 °C 34740.4 hPa ESE 7.2 km/h 12.7 km/h 81 % 0 mm
17:55 -17.6 °C -19.2 °C 34740.4 hPa ESE 8.2 km/h 18.7 km/h 81 % 0 mm
18:00 -17.6 °C -19.3 °C 34740.4 hPa ESE 7.6 km/h 18.7 km/h 80 % 0 mm
18:05 -17.6 °C -19.3 °C 34740.4 hPa ESE 7.2 km/h 14.5 km/h 80 % 0 mm
18:08 -17.6 °C -19.3 °C 34774.2 hPa ESE 6.8 km/h 14.5 km/h 80 % 0 mm
18:10 -17.6 °C -19.3 °C 34774.2 hPa ESE 6 km/h 14.5 km/h 80 % 0 mm
18:14 -17.6 °C -19.2 °C 34774.2 hPa ESE 5.5 km/h 9.3 km/h 81 % 0 mm
18:15 -17.6 °C -19.2 °C 34774.2 hPa ESE 5.5 km/h 9.3 km/h 81 % 0 mm
18:20 -17.6 °C -19.2 °C 34774.2 hPa ESE 6.8 km/h 12.7 km/h 81 % 0 mm
18:22 -17.6 °C -19.2 °C 34774.2 hPa ESE 6.9 km/h 12.7 km/h 81 % 0 mm
18:25 -17.6 °C -19.2 °C 34740.4 hPa ESE 7.2 km/h 12.7 km/h 81 % 0 mm
18:30 -17.6 °C -19.2 °C 34740.4 hPa ESE 6.3 km/h 11.1 km/h 81 % 0 mm
18:31 -17.6 °C -19.2 °C 34740.4 hPa ESE 6.3 km/h 11.1 km/h 81 % 0 mm
18:36 -17.6 °C -19.2 °C 34740.4 hPa ESE 6 km/h 9.8 km/h 81 % 0 mm
18:38 -17.6 °C -19.2 °C 34774.2 hPa ESE 4.7 km/h 9.8 km/h 81 % 0 mm
18:43 -17.6 °C -19.2 °C 34774.2 hPa ESE 5.5 km/h 15 km/h 81 % 0 mm
18:48 -17.6 °C -19.2 °C 34774.2 hPa ESE 6.8 km/h 15 km/h 81 % 0 mm
18:49 -17.6 °C -19.2 °C 34774.2 hPa ESE 6.8 km/h 15 km/h 81 % 0 mm
18:53 -17.6 °C -19.2 °C 34740.4 hPa ESE 6.4 km/h 8.9 km/h 81 % 0 mm
18:58 -17.6 °C -19.2 °C 34740.4 hPa ESE 6.9 km/h 11.1 km/h 81 % 0 mm
19:03 -17.6 °C -19.2 °C 34740.4 hPa ESE 7.2 km/h 11.1 km/h 81 % 0 mm
19:08 -17.6 °C -19.2 °C 34740.4 hPa SE 6.4 km/h 9.8 km/h 81 % 0 mm
19:13 -17.6 °C -19.2 °C 34740.4 hPa SE 6 km/h 9.8 km/h 81 % 0 mm
19:18 -17.6 °C -19.2 °C 34740.4 hPa ESE 6.8 km/h 10.3 km/h 81 % 0 mm
19:23 -17.6 °C -19.2 °C 34740.4 hPa ESE 7.6 km/h 10.3 km/h 81 % 0 mm
19:28 -17.6 °C -19.2 °C 34740.4 hPa ESE 8.5 km/h 15.6 km/h 81 % 0 mm
19:33 -17.7 °C -19.3 °C 34740.4 hPa ESE 8 km/h 15.6 km/h 81 % 0 mm
19:38 -17.7 °C -19.3 °C 34740.4 hPa ESE 6.4 km/h 12.7 km/h 81 % 0 mm
19:43 -17.7 °C -19.3 °C 34740.4 hPa ESE 5.6 km/h 9.8 km/h 81 % 0 mm
19:48 -17.7 °C -19.3 °C 34740.4 hPa ESE 5.6 km/h 11.1 km/h 81 % 0 mm
19:54 -17.7 °C -19.3 °C 34774.2 hPa ESE 6.4 km/h 11.1 km/h 81 % 0 mm
19:59 -17.7 °C -19.3 °C 34774.2 hPa ESE 7.2 km/h 9.8 km/h 81 % 0 mm
20:04 -17.7 °C -19.3 °C 34774.2 hPa ESE 7.2 km/h 9.8 km/h 81 % 0 mm
20:09 -17.7 °C -19.3 °C 34740.4 hPa East 7.2 km/h 9.8 km/h 81 % 0 mm
20:14 -17.7 °C -19.3 °C 34740.4 hPa East 5.6 km/h 9.8 km/h 81 % 0 mm
20:19 -17.7 °C -19.3 °C 34740.4 hPa East 5.1 km/h 8.9 km/h 80 % 0 mm
20:24 -17.7 °C -19.3 °C 34740.4 hPa East 4.7 km/h 8.9 km/h 80 % 0 mm
20:29 -17.7 °C -19.3 °C 34740.4 hPa East 4.7 km/h 8.9 km/h 80 % 0 mm
20:34 -17.7 °C -19.3 °C 34740.4 hPa East 3.1 km/h 8.9 km/h 80 % 0 mm
20:39 -17.7 °C -19.4 °C 34740.4 hPa East 0.5 km/h 8 km/h 80 % 0 mm
20:44 -17.7 °C -19.4 °C 34740.4 hPa ESE 2.3 km/h 8.9 km/h 80 % 0 mm
20:49 -17.7 °C -19.4 °C 34740.4 hPa ESE 3.9 km/h 8.9 km/h 80 % 0 mm
20:54 -17.7 °C -19.4 °C 34740.4 hPa ESE 3.4 km/h 8 km/h 80 % 0 mm
20:59 -17.7 °C -19.4 °C 34740.4 hPa ESE 3.7 km/h 8 km/h 80 % 0 mm
21:04 -17.7 °C -19.4 °C 34740.4 hPa ESE 3.9 km/h 7.6 km/h 80 % 0 mm
21:09 -17.7 °C -19.4 °C 34740.4 hPa ESE 3.9 km/h 7.6 km/h 80 % 0 mm
21:14 -17.7 °C -19.4 °C 34740.4 hPa ESE 2.9 km/h 7.6 km/h 80 % 0 mm
21:19 -17.7 °C -19.4 °C 34740.4 hPa ESE 2.6 km/h 6.9 km/h 80 % 0 mm
21:24 -17.7 °C -19.4 °C 34740.4 hPa ESE 3.1 km/h 6.9 km/h 80 % 0 mm
21:29 -17.7 °C -19.4 °C 34740.4 hPa East 3.9 km/h 7.6 km/h 80 % 0 mm
21:34 -17.7 °C -19.4 °C 34740.4 hPa East 3.7 km/h 7.6 km/h 80 % 0 mm
21:39 -17.7 °C -19.4 °C 34740.4 hPa ESE 2.3 km/h 6.9 km/h 80 % 0 mm
21:44 -17.7 °C -19.4 °C 34740.4 hPa ESE 1.3 km/h 5.1 km/h 80 % 0 mm
21:49 -17.7 °C -19.4 °C 34740.4 hPa ESE 1.3 km/h 5.1 km/h 80 % 0 mm
21:54 -17.7 °C -19.4 °C 34740.4 hPa ESE 1.8 km/h 7.6 km/h 80 % 0 mm
21:59 -17.7 °C -19.4 °C 34740.4 hPa ESE 3.7 km/h 7.6 km/h 80 % 0 mm
22:04 -17.7 °C -19.4 °C 34740.4 hPa ESE 3.7 km/h 7.6 km/h 80 % 0 mm
22:09 -17.7 °C -19.4 °C 34740.4 hPa ESE 0.8 km/h 6.4 km/h 80 % 0 mm
22:14 -17.7 °C -19.4 °C 34740.4 hPa Calm     80 % 0 mm
22:19 -17.7 °C -19.4 °C 34740.4 hPa Calm     80 % 0 mm
22:24 -17.7 °C -19.4 °C 34740.4 hPa Calm     80 % 0 mm
22:29 -17.7 °C -19.4 °C 34740.4 hPa Calm     80 % 0 mm
22:34 -17.8 °C -19.5 °C 34740.4 hPa Calm     80 % 0 mm
22:39 -17.8 °C -19.5 °C 34740.4 hPa Calm     80 % 0 mm
22:44 -17.8 °C -19.5 °C 34740.4 hPa Calm     80 % 0 mm
22:49 -17.8 °C -19.5 °C 34740.4 hPa Calm     80 % 0 mm
22:54 -17.8 °C -19.5 °C 34740.4 hPa Calm     80 % 0 mm
22:59 -17.8 °C -19.4 °C 34740.4 hPa Calm     81 % 0 mm
23:05 -17.8 °C -19.4 °C 34740.4 hPa ENE 0.3 km/h 5.1 km/h 81 % 0 mm
23:10 -17.8 °C -19.4 °C 34740.4 hPa ENE 1 km/h 5.6 km/h 81 % 0 mm
23:15 -17.8 °C -19.4 °C 34740.4 hPa ENE 1.8 km/h 5.6 km/h 81 % 0 mm
23:20 -17.8 °C -19.5 °C 34740.4 hPa ENE 1 km/h 4.2 km/h 80 % 0 mm
23:25 -17.8 °C -19.4 °C 34740.4 hPa East 0.3 km/h 2.9 km/h 81 % 0 mm
23:30 -17.8 °C -19.4 °C 34740.4 hPa Calm   3.4 km/h 81 % 0 mm
23:35 -17.8 °C -19.4 °C 34740.4 hPa ESE 1.6 km/h 6.4 km/h 81 % 0 mm
23:40 -17.8 °C -19.4 °C 34740.4 hPa ESE 3.7 km/h 7.6 km/h 81 % 0 mm
23:45 -17.8 °C -19.4 °C 34740.4 hPa SE 4.3 km/h 7.6 km/h 81 % 0 mm
23:50 -17.8 °C -19.4 °C 34740.4 hPa ESE 5.6 km/h 9.8 km/h 81 % 0 mm
23:55 -17.8 °C -19.5 °C 34740.4 hPa ESE 5.6 km/h 9.8 km/h 80 % 0 mm
Vremenska postaja Senovo
Podatki zbrani iz Weather Underground - 3 mb

Script developed by  Jim McMurry - jmcmurry@mwt.net Adapted for the template by  Wim van der Kuil - Leuven-Template.eu

Vremenski podatki so objavljeni na:

European Weather Network

WeatherCloud

Weather Underground

AWEKAS

HAMweather, WeatherForYou, PWS Weather

MapView

Geostik

Slovenia weather network

Oprema, ki se uporablja:

Vremenski program
Cumulus

Vremenski server
Asus

Cumulus

Asus